Time;durP1;ratioP1;P1;durP2;ratioP2;P2;SDS_P1;SDS_P2;PMS_P1;PMS_P2;Temp;Humidity;BMP_temperature;BMP_pressure;BME280_temperature;BME280_humidity;BME280_pressure;Samples;Min_cycle;Max_cycle;Signal;HPM_P1;HPM_P2
2023/10/20 00:01:51;;;;;;;14.10;7.70;;;;;;;;;;6320335;22;20325;-80
2023/10/20 00:04:17;;;;;;;13.48;7.30;;;;;;;;;;6295250;22;20011;-80
2023/10/20 00:06:44;;;;;;;18.98;8.40;;;;;;;;;;6293495;22;20015;-81
2023/10/20 00:09:18;;;;;;;15.15;8.90;;;;;;;;;;6294906;22;20011;-80
2023/10/20 00:11:45;;;;;;;17.52;7.90;;;;;;;;;;6294117;22;20015;-79
2023/10/20 00:14:11;;;;;;;15.90;8.02;;;;;;;;;;6320834;22;20318;-80
2023/10/20 00:16:37;;;;;;;16.48;7.68;;;;;;;;;;6293767;22;20026;-80
2023/10/20 00:19:03;;;;;;;15.90;7.60;;;;;;;;;;6268613;22;20015;-80
2023/10/20 00:21:30;;;;;;;18.75;7.97;;;;;;;;;;6288796;22;20019;-80
2023/10/20 00:23:56;;;;;;;15.63;7.85;;;;;;;;;;6290315;22;20026;-80
2023/10/20 00:26:22;;;;;;;15.70;8.05;;;;;;;;;;6320486;22;20011;-81
2023/10/20 00:28:48;;;;;;;13.88;7.70;;;;;;;;;;6267301;22;20050;-80
2023/10/20 00:31:16;;;;;;;16.35;8.13;;;;;;;;;;6318597;22;20023;-80
2023/10/20 00:33:45;;;;;;;20.02;7.93;;;;;;;;;;6278410;22;20023;-80
2023/10/20 00:36:11;;;;;;;16.33;8.82;;;;;;;;;;6302153;22;20015;-80
2023/10/20 00:38:38;;;;;;;14.30;7.22;;;;;;;;;;6296808;22;20022;-80
2023/10/20 00:41:04;;;;;;;14.68;7.57;;;;;;;;;;6326798;22;20068;-80
2023/10/20 00:43:35;;;;;;;17.50;7.30;;;;;;;;;;6302030;22;20022;-81
2023/10/20 00:46:01;;;;;;;16.33;8.00;;;;;;;;;;6298363;22;20025;-80
2023/10/20 00:48:27;;;;;;;17.58;8.52;;;;;;;;;;6320531;22;20015;-80
2023/10/20 00:50:53;;;;;;;13.65;7.95;;;;;;;;;;6323423;22;20086;-80
2023/10/20 00:53:19;;;;;;;13.85;7.88;;;;;;;;;;6324773;22;20018;-80
2023/10/20 00:55:46;;;;;;;13.75;7.55;;;;;;;;;;6323526;22;20018;-80
2023/10/20 00:58:12;;;;;;;17.42;8.30;;;;;;;;;;6322633;22;20010;-81
2023/10/20 01:00:38;;;;;;;12.85;7.13;;;;;;;;;;6322755;22;20042;-80
2023/10/20 01:03:04;;;;;;;17.13;7.38;;;;;;;;;;6323098;22;20018;-80
2023/10/20 01:05:33;;;;;;;20.10;8.40;;;;;;;;;;6325057;22;20321;-80
2023/10/20 01:07:59;;;;;;;12.45;7.00;;;;;;;;;;6322181;22;20085;-80
2023/10/20 01:10:25;;;;;;;12.43;7.10;;;;;;;;;;6293812;22;20015;-79
2023/10/20 01:12:51;;;;;;;13.25;6.57;;;;;;;;;;6296816;22;20018;-80
2023/10/20 01:15:18;;;;;;;16.75;7.80;;;;;;;;;;6294681;22;20014;-80
2023/10/20 01:17:44;;;;;;;12.48;7.15;;;;;;;;;;6320713;22;20011;-80
2023/10/20 01:20:11;;;;;;;12.60;7.30;;;;;;;;;;6321717;22;20019;-80
2023/10/20 01:22:37;;;;;;;18.27;8.68;;;;;;;;;;6349242;22;20435;-80
2023/10/20 01:25:03;;;;;;;16.30;7.97;;;;;;;;;;6320861;22;20094;-80
2023/10/20 01:27:29;;;;;;;15.15;7.78;;;;;;;;;;6296154;22;20018;-81
2023/10/20 01:29:55;;;;;;;15.02;8.98;;;;;;;;;;6296192;22;20021;-80
2023/10/20 01:32:21;;;;;;;15.93;7.50;;;;;;;;;;6294893;22;20021;-80
2023/10/20 01:34:47;;;;;;;15.60;7.57;;;;;;;;;;6321647;22;20015;-80
2023/10/20 01:37:14;;;;;;;17.27;7.60;;;;;;;;;;6322109;22;20015;-80
2023/10/20 01:39:41;;;;;;;14.65;7.28;;;;;;;;;;6321885;22;20439;-80
2023/10/20 01:42:07;;;;;;;17.38;7.50;;;;;;;;;;6297490;22;20011;-80
2023/10/20 01:44:34;;;;;;;15.88;7.57;;;;;;;;;;6296722;22;20067;-81
2023/10/20 01:47:00;;;;;;;13.38;7.05;;;;;;;;;;6295982;22;20006;-80
2023/10/20 01:49:26;;;;;;;14.63;8.00;;;;;;;;;;6323029;22;20015;-80
2023/10/20 01:51:52;;;;;;;17.58;8.43;;;;;;;;;;6350437;22;20015;-80
2023/10/20 01:54:18;;;;;;;20.58;8.10;;;;;;;;;;6322305;22;20023;-80
2023/10/20 01:56:44;;;;;;;16.27;7.78;;;;;;;;;;6323367;22;20014;-81
2023/10/20 01:59:11;;;;;;;13.52;6.93;;;;;;;;;;6321892;22;20011;-80
2023/10/20 02:01:37;;;;;;;15.63;7.65;;;;;;;;;;6320769;22;20060;-80
2023/10/20 02:04:03;;;;;;;16.50;7.85;;;;;;;;;;6350033;22;20011;-80
2023/10/20 02:06:29;;;;;;;14.40;7.70;;;;;;;;;;6347440;22;20014;-80
2023/10/20 02:08:55;;;;;;;17.48;8.00;;;;;;;;;;6324508;22;20011;-81
2023/10/20 02:11:21;;;;;;;14.73;7.68;;;;;;;;;;6345295;22;20030;-81
2023/10/20 02:13:47;;;;;;;20.10;9.88;;;;;;;;;;6287048;22;20078;-80
2023/10/20 02:16:13;;;;;;;16.73;7.88;;;;;;;;;;6296171;22;20344;-80
2023/10/20 02:18:39;;;;;;;16.17;7.75;;;;;;;;;;6299259;22;20010;-80
2023/10/20 02:21:08;;;;;;;15.65;7.40;;;;;;;;;;6327875;22;20015;-80
2023/10/20 02:23:35;;;;;;;24.67;8.63;;;;;;;;;;6327240;22;20054;-80
2023/10/20 02:26:02;;;;;;;12.55;7.00;;;;;;;;;;6295522;22;20015;-81
2023/10/20 02:28:28;;;;;;;12.68;6.40;;;;;;;;;;6300189;22;20046;-81
2023/10/20 02:30:58;;;;;;;14.18;7.35;;;;;;;;;;6326095;22;20407;-80
2023/10/20 02:33:25;;;;;;;11.88;6.95;;;;;;;;;;6298594;22;20371;-80
2023/10/20 02:35:52;;;;;;;13.20;6.43;;;;;;;;;;6275410;22;20015;-80
2023/10/20 02:38:19;;;;;;;14.25;7.25;;;;;;;;;;6299841;22;20016;-81
2023/10/20 02:40:55;;;;;;;12.50;7.53;;;;;;;;;;6299586;22;20039;-79
2023/10/20 02:43:24;;;;;;;12.73;7.07;;;;;;;;;;6301158;22;20507;-80
2023/10/20 02:45:52;;;;;;;16.60;7.88;;;;;;;;;;6265924;22;20007;-80
2023/10/20 02:48:18;;;;;;;15.32;7.40;;;;;;;;;;6290051;22;20015;-80
2023/10/20 02:50:44;;;;;;;15.95;7.13;;;;;;;;;;6289621;22;20317;-81
2023/10/20 02:53:10;;;;;;;14.05;7.45;;;;;;;;;;6263561;22;20019;-80
2023/10/20 02:55:38;;;;;;;14.88;7.15;;;;;;;;;;6290258;22;20011;-80
2023/10/20 02:58:04;;;;;;;13.77;7.53;;;;;;;;;;6289736;22;20015;-80
2023/10/20 03:00:30;;;;;;;14.02;7.03;;;;;;;;;;6261457;22;20015;-80
2023/10/20 03:02:56;;;;;;;12.45;6.85;;;;;;;;;;6288999;22;20039;-80
2023/10/20 03:05:22;;;;;;;13.32;6.60;;;;;;;;;;6265118;22;20015;-80
2023/10/20 03:07:49;;;;;;;12.98;6.93;;;;;;;;;;6292135;22;20770;-80
2023/10/20 03:10:15;;;;;;;11.98;6.85;;;;;;;;;;6263561;22;20019;-80
2023/10/20 03:12:41;;;;;;;11.88;6.43;;;;;;;;;;6313938;22;20015;-80
2023/10/20 03:15:08;;;;;;;11.82;7.07;;;;;;;;;;6321363;22;20072;-80
2023/10/20 03:17:35;;;;;;;12.25;6.13;;;;;;;;;;6322499;22;20019;-79
2023/10/20 03:20:03;;;;;;;13.45;7.82;;;;;;;;;;6322467;22;20348;-80
2023/10/20 03:22:29;;;;;;;12.85;7.40;;;;;;;;;;6321421;22;20053;-79
2023/10/20 03:24:55;;;;;;;11.68;6.28;;;;;;;;;;6321242;22;20018;-81
2023/10/20 03:27:22;;;;;;;14.50;8.05;;;;;;;;;;6324506;22;20019;-80
2023/10/20 03:29:48;;;;;;;13.60;7.53;;;;;;;;;;6324918;22;20011;-80
2023/10/20 03:32:14;;;;;;;12.15;6.07;;;;;;;;;;6321818;22;20014;-80
2023/10/20 03:34:40;;;;;;;11.27;6.18;;;;;;;;;;6324710;22;20015;-80
2023/10/20 03:37:06;;;;;;;13.20;6.03;;;;;;;;;;6321914;22;20063;-80
2023/10/20 03:39:33;;;;;;;12.57;6.43;;;;;;;;;;6323300;22;20036;-80
2023/10/20 03:42:01;;;;;;;12.45;6.15;;;;;;;;;;6297008;22;20007;-80
2023/10/20 03:44:27;;;;;;;13.63;7.43;;;;;;;;;;6348702;22;20022;-80
2023/10/20 03:46:56;;;;;;;11.05;6.05;;;;;;;;;;6322048;22;20019;-81
2023/10/20 03:49:23;;;;;;;9.48;5.60;;;;;;;;;;6296419;22;20015;-81
2023/10/20 03:51:53;;;;;;;11.68;6.00;;;;;;;;;;6296649;22;20011;-81
2023/10/20 03:54:19;;;;;;;11.27;6.13;;;;;;;;;;6320842;22;20015;-80
2023/10/20 03:56:45;;;;;;;9.68;5.85;;;;;;;;;;6322063;22;20007;-80
2023/10/20 03:59:12;;;;;;;12.63;6.88;;;;;;;;;;6295121;22;20018;-80
2023/10/20 04:01:39;;;;;;;14.63;7.22;;;;;;;;;;6319393;22;20025;-80
2023/10/20 04:04:09;;;;;;;12.73;7.63;;;;;;;;;;6319858;22;20022;-81
2023/10/20 04:06:39;;;;;;;14.48;7.30;;;;;;;;;;6318530;22;20021;-79
2023/10/20 04:09:09;;;;;;;11.32;6.80;;;;;;;;;;6320307;22;20011;-80
2023/10/20 04:11:35;;;;;;;11.75;6.45;;;;;;;;;;6293212;22;20015;-81
2023/10/20 04:14:08;;;;;;;11.45;6.55;;;;;;;;;;6319482;22;20018;-81
2023/10/20 04:16:41;;;;;;;11.73;6.57;;;;;;;;;;6292591;22;20026;-80
2023/10/20 04:19:12;;;;;;;10.02;5.82;;;;;;;;;;6320900;22;20015;-80
2023/10/20 04:21:40;;;;;;;11.80;6.43;;;;;;;;;;6291691;22;20450;-79
2023/10/20 04:24:07;;;;;;;11.95;6.65;;;;;;;;;;6316899;22;20017;-79
2023/10/20 04:26:44;;;;;;;11.65;6.30;;;;;;;;;;6344216;22;20063;-79
2023/10/20 04:46:52;;;;;;;10.98;6.20;;;;;;;;;;6318698;22;20014;-80
2023/10/20 04:53:52;;;;;;;14.23;8.02;;;;;;;;;;6318320;22;20447;-81
2023/10/20 04:56:32;;;;;;;12.52;7.25;;;;;;;;;;6319185;22;20317;-82
2023/10/20 04:59:04;;;;;;;11.07;5.70;;;;;;;;;;6321412;22;20447;-82
2023/10/20 05:01:56;;;;;;;11.73;6.13;;;;;;;;;;6320751;22;20054;-83
2023/10/20 05:04:28;;;;;;;10.15;5.53;;;;;;;;;;6317428;22;20086;-80
2023/10/20 05:07:00;;;;;;;13.13;8.00;;;;;;;;;;6316665;22;20046;-79
2023/10/20 05:09:26;;;;;;;10.10;5.93;;;;;;;;;;6319102;22;20010;-80
2023/10/20 05:11:53;;;;;;;11.63;6.53;;;;;;;;;;6317234;22;20023;-79
2023/10/20 05:14:19;;;;;;;11.75;6.47;;;;;;;;;;6313371;22;20031;-80
2023/10/20 05:16:45;;;;;;;12.05;6.45;;;;;;;;;;6291127;22;20440;-81
2023/10/20 05:19:12;;;;;;;11.13;5.85;;;;;;;;;;6316749;22;20087;-81
2023/10/20 05:21:40;;;;;;;9.13;5.55;;;;;;;;;;6348609;22;20015;-81
2023/10/20 05:24:08;;;;;;;12.45;6.32;;;;;;;;;;6344283;22;20006;-81
2023/10/20 05:26:34;;;;;;;12.52;6.90;;;;;;;;;;6342558;22;20015;-80
2023/10/20 05:29:01;;;;;;;14.38;6.97;;;;;;;;;;6343272;22;20060;-79
2023/10/20 05:31:27;;;;;;;9.32;5.95;;;;;;;;;;6315420;22;20097;-79
2023/10/20 05:33:56;;;;;;;10.35;5.63;;;;;;;;;;6342157;22;20011;-80
2023/10/20 05:36:22;;;;;;;13.07;6.90;;;;;;;;;;6343667;22;20062;-80
2023/10/20 05:38:48;;;;;;;11.90;6.47;;;;;;;;;;6344143;22;20067;-79
2023/10/20 05:41:14;;;;;;;10.50;5.68;;;;;;;;;;6315489;22;20042;-80
2023/10/20 05:43:41;;;;;;;9.65;5.47;;;;;;;;;;6314716;22;20042;-81
2023/10/20 05:46:13;;;;;;;10.02;6.15;;;;;;;;;;6339548;22;20340;-81
2023/10/20 05:48:40;;;;;;;10.25;5.97;;;;;;;;;;6286313;22;20053;-79
2023/10/20 05:51:06;;;;;;;11.48;6.50;;;;;;;;;;6341187;22;20015;-80
2023/10/20 05:53:32;;;;;;;13.70;6.40;;;;;;;;;;6345744;22;20007;-80
2023/10/20 05:55:58;;;;;;;14.90;7.65;;;;;;;;;;6314125;22;20371;-82
2023/10/20 05:58:24;;;;;;;9.85;5.55;;;;;;;;;;6343190;22;20499;-80
2023/10/20 06:00:50;;;;;;;9.05;5.55;;;;;;;;;;6342127;22;20029;-79
2023/10/20 06:03:16;;;;;;;9.70;5.78;;;;;;;;;;6342925;22;20015;-80
2023/10/20 06:05:42;;;;;;;13.35;7.00;;;;;;;;;;6343126;22;20014;-80
2023/10/20 06:08:09;;;;;;;10.20;5.65;;;;;;;;;;6342763;22;20014;-80
2023/10/20 06:10:36;;;;;;;9.57;5.35;;;;;;;;;;6347785;22;20010;-80
2023/10/20 06:13:03;;;;;;;9.00;5.13;;;;;;;;;;6323844;22;20058;-80
2023/10/20 06:15:31;;;;;;;10.38;5.63;;;;;;;;;;6294834;22;20064;-80
2023/10/20 06:17:57;;;;;;;9.23;5.70;;;;;;;;;;6289244;22;20018;-80
2023/10/20 06:20:23;;;;;;;11.60;5.60;;;;;;;;;;6266141;22;20023;-81
2023/10/20 06:22:49;;;;;;;9.35;4.80;;;;;;;;;;6311412;22;20050;-81
2023/10/20 06:25:16;;;;;;;8.45;4.53;;;;;;;;;;6282325;22;20018;-81
2023/10/20 06:27:43;;;;;;;7.90;4.28;;;;;;;;;;6307860;22;20015;-80
2023/10/20 06:30:21;;;;;;;8.50;5.78;;;;;;;;;;6306441;22;20022;-81
2023/10/20 06:32:56;;;;;;;11.50;5.22;;;;;;;;;;6277662;22;20060;-80
2023/10/20 06:35:28;;;;;;;9.32;5.40;;;;;;;;;;6305194;22;20754;-83
2023/10/20 06:38:14;;;;;;;8.10;4.65;;;;;;;;;;6257144;22;20404;-81
2023/10/20 06:40:40;;;;;;;7.20;5.25;;;;;;;;;;6311740;22;20432;-81
2023/10/20 06:43:06;;;;;;;7.50;3.58;;;;;;;;;;6313922;22;20011;-80
2023/10/20 06:45:34;;;;;;;7.88;4.20;;;;;;;;;;6312438;22;20072;-81
2023/10/20 06:48:00;;;;;;;8.27;5.15;;;;;;;;;;6312980;22;20039;-80
2023/10/20 06:50:26;;;;;;;7.70;4.60;;;;;;;;;;6312863;22;20011;-80
2023/10/20 06:52:55;;;;;;;7.65;4.07;;;;;;;;;;6258896;22;20022;-82
2023/10/20 06:55:21;;;;;;;7.30;4.57;;;;;;;;;;6312289;22;20015;-81
2023/10/20 06:57:47;;;;;;;5.43;3.65;;;;;;;;;;6259539;22;20471;-80
2023/10/20 07:00:22;;;;;;;6.88;3.88;;;;;;;;;;6311211;22;20015;-81
2023/10/20 07:02:48;;;;;;;7.38;4.53;;;;;;;;;;6312232;22;20015;-81
2023/10/20 07:05:14;;;;;;;7.60;4.50;;;;;;;;;;6311063;22;20031;-80
2023/10/20 07:07:40;;;;;;;8.57;4.53;;;;;;;;;;6281443;22;20043;-82
2023/10/20 07:10:10;;;;;;;7.15;4.63;;;;;;;;;;6311945;22;20034;-81
2023/10/20 07:12:37;;;;;;;6.57;3.72;;;;;;;;;;6310801;22;20023;-81
2023/10/20 07:15:05;;;;;;;6.53;3.45;;;;;;;;;;6310888;22;20011;-82
2023/10/20 07:17:32;;;;;;;6.50;3.97;;;;;;;;;;6284026;22;20046;-81
2023/10/20 07:19:58;;;;;;;6.50;4.15;;;;;;;;;;6283720;22;20019;-81
2023/10/20 07:22:26;;;;;;;6.60;3.53;;;;;;;;;;6311341;22;20063;-82
2023/10/20 07:24:52;;;;;;;6.63;4.18;;;;;;;;;;6311450;22;20072;-81
2023/10/20 07:27:19;;;;;;;5.28;3.85;;;;;;;;;;6311892;22;20444;-82
2023/10/20 07:29:45;;;;;;;7.38;4.40;;;;;;;;;;6259020;22;20047;-82
2023/10/20 07:32:12;;;;;;;6.05;3.65;;;;;;;;;;6285000;22;20021;-82
2023/10/20 07:34:38;;;;;;;4.90;3.90;;;;;;;;;;6312185;22;20015;-83
2023/10/20 07:37:06;;;;;;;5.30;4.10;;;;;;;;;;6311858;22;20086;-82
2023/10/20 07:39:33;;;;;;;6.78;4.00;;;;;;;;;;6284444;22;20011;-82
2023/10/20 07:41:59;;;;;;;4.88;4.07;;;;;;;;;;6284117;22;20186;-82
2023/10/20 07:44:25;;;;;;;5.18;3.72;;;;;;;;;;6311737;22;20025;-82
2023/10/20 07:46:51;;;;;;;6.07;3.92;;;;;;;;;;6314874;22;20366;-82
2023/10/20 07:49:17;;;;;;;5.28;3.75;;;;;;;;;;6284230;22;20038;-82
2023/10/20 07:51:44;;;;;;;6.45;3.78;;;;;;;;;;6284514;22;20444;-82
2023/10/20 07:54:12;;;;;;;3.78;3.13;;;;;;;;;;6309907;22;20015;-82
2023/10/20 07:56:38;;;;;;;4.95;4.45;;;;;;;;;;6314025;22;20418;-82
2023/10/20 07:59:04;;;;;;;4.55;3.13;;;;;;;;;;6311418;22;20451;-81
2023/10/20 08:01:30;;;;;;;4.85;3.17;;;;;;;;;;6312177;22;20015;-82
2023/10/20 08:03:56;;;;;;;7.18;3.67;;;;;;;;;;6310519;22;20015;-82
2023/10/20 08:06:23;;;;;;;5.07;3.30;;;;;;;;;;6311225;22;20090;-80
2023/10/20 08:08:49;;;;;;;3.80;2.95;;;;;;;;;;6312239;22;20011;-82
2023/10/20 08:11:16;;;;;;;4.85;3.92;;;;;;;;;;6312416;22;20026;-82
2023/10/20 08:13:42;;;;;;;5.05;3.22;;;;;;;;;;6286833;22;20016;-81
2023/10/20 08:16:08;;;;;;;5.10;3.30;;;;;;;;;;6286154;22;20011;-82
2023/10/20 08:18:34;;;;;;;5.65;2.30;;;;;;;;;;6312555;22;20007;-83
2023/10/20 08:21:04;;;;;;;4.65;2.50;;;;;;;;;;6285943;22;20016;-82
2023/10/20 08:23:30;;;;;;;3.78;2.63;;;;;;;;;;6259914;22;20050;-82
2023/10/20 08:25:56;;;;;;;3.45;2.60;;;;;;;;;;6286068;22;20336;-82
2023/10/20 08:28:22;;;;;;;3.67;2.50;;;;;;;;;;6284701;22;20019;-81
2023/10/20 08:30:49;;;;;;;1.95;1.70;;;;;;;;;;6283337;22;20019;-81
2023/10/20 08:33:15;;;;;;;2.25;1.98;;;;;;;;;;6281980;22;20041;-80
2023/10/20 08:35:41;;;;;;;3.67;2.45;;;;;;;;;;6283228;22;20011;-82
2023/10/20 08:38:07;;;;;;;2.40;1.95;;;;;;;;;;6284821;22;20081;-81
2023/10/20 08:40:33;;;;;;;3.40;1.80;;;;;;;;;;6312840;22;20015;-82
2023/10/20 08:43:02;;;;;;;3.58;2.25;;;;;;;;;;6313619;22;20011;-81
2023/10/20 08:45:31;;;;;;;2.47;1.65;;;;;;;;;;6313028;22;20019;-81
2023/10/20 08:47:58;;;;;;;3.05;1.75;;;;;;;;;;6285184;22;20038;-82
2023/10/20 08:50:24;;;;;;;3.55;1.98;;;;;;;;;;6311615;22;20015;-82
2023/10/20 08:52:52;;;;;;;2.35;1.67;;;;;;;;;;6311374;22;20031;-81
2023/10/20 08:55:18;;;;;;;3.58;2.08;;;;;;;;;;6282416;22;20016;-81
2023/10/20 08:57:44;;;;;;;3.22;1.63;;;;;;;;;;6312047;22;20050;-80
2023/10/20 09:00:19;;;;;;;2.88;1.85;;;;;;;;;;6310471;22;20436;-81
2023/10/20 09:02:45;;;;;;;1.55;1.45;;;;;;;;;;6284047;22;20022;-80
2023/10/20 09:05:12;;;;;;;1.88;1.40;;;;;;;;;;6308404;22;20460;-82
2023/10/20 09:07:38;;;;;;;1.48;1.38;;;;;;;;;;6286126;22;20467;-82
2023/10/20 09:10:04;;;;;;;1.63;1.50;;;;;;;;;;6258124;22;20015;-82
2023/10/20 09:12:30;;;;;;;1.88;1.50;;;;;;;;;;6312626;22;20023;-81
2023/10/20 09:14:57;;;;;;;2.08;1.33;;;;;;;;;;6284509;22;20019;-82
2023/10/20 09:17:23;;;;;;;2.67;1.20;;;;;;;;;;6312495;22;20015;-82
2023/10/20 09:19:49;;;;;;;1.88;1.33;;;;;;;;;;6285148;22;20019;-83
2023/10/20 09:22:15;;;;;;;1.40;1.30;;;;;;;;;;6316808;22;20076;-82
2023/10/20 09:24:41;;;;;;;1.13;0.90;;;;;;;;;;6315923;22;20383;-82
2023/10/20 09:27:08;;;;;;;1.65;1.10;;;;;;;;;;6314033;22;20039;-82
2023/10/20 09:29:34;;;;;;;1.42;1.13;;;;;;;;;;6285539;22;20019;-81
2023/10/20 09:32:00;;;;;;;0.90;0.82;;;;;;;;;;6285110;22;20015;-83
2023/10/20 09:34:26;;;;;;;1.25;0.95;;;;;;;;;;6285227;22;20045;-81
2023/10/20 09:36:53;;;;;;;1.70;1.17;;;;;;;;;;6316135;22;20015;-82
2023/10/20 09:39:25;;;;;;;1.27;0.90;;;;;;;;;;6278449;22;20010;-80
2023/10/20 09:41:51;;;;;;;1.95;0.80;;;;;;;;;;6318125;22;20023;-81
2023/10/20 09:44:34;;;;;;;1.52;0.95;;;;;;;;;;6308226;22;20460;-81
2023/10/20 09:47:10;;;;;;;0.75;0.75;;;;;;;;;;6308582;22;20011;-83
2023/10/20 09:49:38;;;;;;;1.60;1.20;;;;;;;;;;6259224;22;20046;-81
2023/10/20 09:52:05;;;;;;;0.85;0.73;;;;;;;;;;6285652;22;20011;-82
2023/10/20 09:54:33;;;;;;;1.48;1.00;;;;;;;;;;6285457;22;20015;-81
2023/10/20 09:56:59;;;;;;;0.93;0.70;;;;;;;;;;6285805;22;20067;-82
2023/10/20 09:59:27;;;;;;;0.63;0.60;;;;;;;;;;6315521;22;20086;-82
2023/10/20 10:01:54;;;;;;;1.65;0.93;;;;;;;;;;6316820;22;20019;-82
2023/10/20 10:04:28;;;;;;;1.00;0.90;;;;;;;;;;6315990;22;20023;-83
2023/10/20 10:06:55;;;;;;;1.20;0.77;;;;;;;;;;6312772;22;20011;-82
2023/10/20 10:09:22;;;;;;;0.88;0.75;;;;;;;;;;6316033;22;20331;-82
2023/10/20 10:11:49;;;;;;;0.80;0.80;;;;;;;;;;6315046;22;20390;-82
2023/10/20 10:14:22;;;;;;;1.88;0.70;;;;;;;;;;6287202;22;20094;-81
2023/10/20 10:16:53;;;;;;;1.30;0.63;;;;;;;;;;6317808;22;20055;-82
2023/10/20 10:19:20;;;;;;;1.55;0.65;;;;;;;;;;6288209;22;20019;-82
2023/10/20 10:21:49;;;;;;;1.00;0.90;;;;;;;;;;6315029;22;20043;-82
2023/10/20 10:24:17;;;;;;;1.98;0.82;;;;;;;;;;6286414;22;20015;-82
2023/10/20 10:26:46;;;;;;;0.88;0.43;;;;;;;;;;6286580;22;20043;-82
2023/10/20 10:29:12;;;;;;;0.93;0.68;;;;;;;;;;6283992;22;20015;-82
2023/10/20 10:31:40;;;;;;;0.80;0.80;;;;;;;;;;6282842;22;20022;-82
2023/10/20 10:34:06;;;;;;;0.45;0.45;;;;;;;;;;6285645;22;20019;-82
2023/10/20 10:36:45;;;;;;;1.00;0.52;;;;;;;;;;6310683;22;20022;-83
2023/10/20 10:39:27;;;;;;;0.63;0.60;;;;;;;;;;6308999;22;20078;-83
2023/10/20 10:41:53;;;;;;;0.40;0.40;;;;;;;;;;6310098;22;20007;-81
2023/10/20 10:44:21;;;;;;;0.50;0.50;;;;;;;;;;6283603;22;20019;-82
2023/10/20 10:46:47;;;;;;;0.70;0.70;;;;;;;;;;6285819;22;20321;-83
2023/10/20 10:49:14;;;;;;;0.70;0.35;;;;;;;;;;6312033;22;20038;-81
2023/10/20 10:51:47;;;;;;;0.82;0.57;;;;;;;;;;6284763;22;20019;-82
2023/10/20 10:54:17;;;;;;;0.73;0.60;;;;;;;;;;6312873;22;20487;-82
2023/10/20 10:56:43;;;;;;;2.38;0.80;;;;;;;;;;6284908;22;20011;-81
2023/10/20 10:59:10;;;;;;;0.65;0.63;;;;;;;;;;6313183;22;20460;-83
2023/10/20 11:01:38;;;;;;;0.70;0.60;;;;;;;;;;6286796;22;20019;-82
2023/10/20 11:04:04;;;;;;;0.47;0.43;;;;;;;;;;6313999;22;20011;-81
2023/10/20 11:06:32;;;;;;;0.65;0.60;;;;;;;;;;6314310;22;20015;-82
2023/10/20 11:08:58;;;;;;;0.75;0.73;;;;;;;;;;6284285;22;20386;-81
2023/10/20 11:11:27;;;;;;;0.80;0.50;;;;;;;;;;6313012;22;20314;-82
2023/10/20 11:13:55;;;;;;;0.43;0.43;;;;;;;;;;6310057;22;20064;-80
2023/10/20 11:16:21;;;;;;;0.40;0.32;;;;;;;;;;6311128;22;20015;-83
2023/10/20 11:18:47;;;;;;;0.73;0.50;;;;;;;;;;6285872;22;20086;-81
2023/10/20 11:21:13;;;;;;;0.47;0.40;;;;;;;;;;6284873;22;20935;-82
2023/10/20 11:23:39;;;;;;;1.27;0.50;;;;;;;;;;6312280;22;20337;-82
2023/10/20 11:26:17;;;;;;;0.60;0.40;;;;;;;;;;6311117;22;20019;-81
2023/10/20 11:28:44;;;;;;;0.45;0.40;;;;;;;;;;6286335;22;20015;-82
2023/10/20 11:31:11;;;;;;;0.65;0.47;;;;;;;;;;6312423;22;20012;-81
2023/10/20 11:33:37;;;;;;;0.38;0.32;;;;;;;;;;6312751;22;20415;-82
2023/10/20 11:36:04;;;;;;;0.50;0.32;;;;;;;;;;6259110;22;20470;-82
2023/10/20 11:38:32;;;;;;;0.40;0.40;;;;;;;;;;6257645;22;20448;-82
2023/10/20 11:40:59;;;;;;;0.30;0.30;;;;;;;;;;6310695;22;20015;-82
2023/10/20 11:43:25;;;;;;;0.90;0.45;;;;;;;;;;6309888;22;20015;-82
2023/10/20 11:45:51;;;;;;;0.93;0.50;;;;;;;;;;6281575;22;20015;-81
2023/10/20 11:48:17;;;;;;;0.47;0.43;;;;;;;;;;6309787;22;20490;-82
2023/10/20 11:50:43;;;;;;;0.30;0.30;;;;;;;;;;6282709;22;20094;-82
2023/10/20 11:53:09;;;;;;;0.57;0.40;;;;;;;;;;6308801;22;20018;-82
2023/10/20 11:55:35;;;;;;;0.60;0.30;;;;;;;;;;6283005;22;20011;-81
2023/10/20 11:58:04;;;;;;;0.50;0.50;;;;;;;;;;6282952;22;20016;-82
2023/10/20 12:00:30;;;;;;;0.40;0.40;;;;;;;;;;6310166;22;20023;-82
2023/10/20 12:02:56;;;;;;;0.20;0.20;;;;;;;;;;6310071;22;20014;-82
2023/10/20 12:05:22;;;;;;;0.50;0.32;;;;;;;;;;6281942;22;20011;-81
2023/10/20 12:07:48;;;;;;;0.40;0.40;;;;;;;;;;6281666;22;20022;-83
2023/10/20 12:10:14;;;;;;;0.40;0.40;;;;;;;;;;6310147;22;20074;-81
2023/10/20 12:12:40;;;;;;;0.50;0.40;;;;;;;;;;6311902;22;20212;-81
2023/10/20 12:15:07;;;;;;;0.32;0.32;;;;;;;;;;6310059;22;20019;-81
2023/10/20 12:17:33;;;;;;;0.30;0.30;;;;;;;;;;6309732;22;20054;-82
2023/10/20 12:19:59;;;;;;;0.50;0.30;;;;;;;;;;6309590;22;20007;-82
2023/10/20 12:22:28;;;;;;;0.30;0.30;;;;;;;;;;6308559;22;20014;-81
2023/10/20 12:24:54;;;;;;;1.58;0.68;;;;;;;;;;6310134;22;20007;-83
2023/10/20 12:27:21;;;;;;;0.35;0.35;;;;;;;;;;6283037;22;20340;-82
2023/10/20 12:29:47;;;;;;;0.35;0.35;;;;;;;;;;6312155;22;20015;-82
2023/10/20 12:32:13;;;;;;;0.20;0.20;;;;;;;;;;6309330;22;20089;-82
2023/10/20 12:34:39;;;;;;;0.22;0.22;;;;;;;;;;6311654;22;20019;-82
2023/10/20 12:37:05;;;;;;;0.85;0.25;;;;;;;;;;6310136;22;20336;-82
2023/10/20 12:39:34;;;;;;;0.20;0.20;;;;;;;;;;6309947;22;20051;-82
2023/10/20 12:42:04;;;;;;;0.30;0.20;;;;;;;;;;6282657;22;20019;-82
2023/10/20 12:44:30;;;;;;;0.45;0.30;;;;;;;;;;6310672;22;20011;-84
2023/10/20 12:46:56;;;;;;;0.20;0.20;;;;;;;;;;6311602;22;20019;-83
2023/10/20 12:49:22;;;;;;;0.10;0.10;;;;;;;;;;6309878;22;20015;-83
2023/10/20 12:51:48;;;;;;;0.30;0.30;;;;;;;;;;6284650;22;20016;-83
2023/10/20 12:54:14;;;;;;;0.20;0.20;;;;;;;;;;6282556;22;20018;-83
2023/10/20 12:56:40;;;;;;;0.22;0.22;;;;;;;;;;6283193;22;20079;-82
2023/10/20 12:59:06;;;;;;;0.68;0.30;;;;;;;;;;6282823;22;20011;-82
2023/10/20 13:01:32;;;;;;;0.20;0.20;;;;;;;;;;6310815;22;20011;-84
2023/10/20 13:03:59;;;;;;;0.20;0.20;;;;;;;;;;6256806;22;20057;-82
2023/10/20 13:06:25;;;;;;;0.22;0.20;;;;;;;;;;6309559;22;20015;-83
2023/10/20 13:08:52;;;;;;;1.17;0.20;;;;;;;;;;6309877;22;20060;-83
2023/10/20 13:11:18;;;;;;;0.38;0.30;;;;;;;;;;6310514;22;20049;-83
2023/10/20 13:13:45;;;;;;;0.20;0.20;;;;;;;;;;6289223;22;20030;-83
2023/10/20 13:16:11;;;;;;;0.20;0.20;;;;;;;;;;6288123;22;20090;-83
2023/10/20 13:18:37;;;;;;;0.32;0.25;;;;;;;;;;6316315;22;20012;-82
2023/10/20 13:21:07;;;;;;;0.10;0.10;;;;;;;;;;6287028;22;20463;-83
2023/10/20 13:23:33;;;;;;;0.15;0.15;;;;;;;;;;6315381;22;20016;-82
2023/10/20 13:26:05;;;;;;;0.10;0.10;;;;;;;;;;6286552;22;20022;-83
2023/10/20 13:28:34;;;;;;;0.05;0.00;;;;;;;;;;6287415;22;20045;-82
2023/10/20 13:31:06;;;;;;;0.35;0.35;;;;;;;;;;6261078;22;20340;-83
2023/10/20 13:33:33;;;;;;;0.20;0.20;;;;;;;;;;6313857;22;20090;-82
2023/10/20 13:36:02;;;;;;;0.20;0.20;;;;;;;;;;6313558;22;20046;-83
2023/10/20 13:38:30;;;;;;;0.40;0.30;;;;;;;;;;6264473;22;20038;-83
2023/10/20 13:40:56;;;;;;;0.25;0.15;;;;;;;;;;6264001;22;20090;-83
2023/10/20 13:43:22;;;;;;;0.32;0.20;;;;;;;;;;6317913;22;20080;-82
2023/10/20 13:45:48;;;;;;;0.30;0.20;;;;;;;;;;6290609;22;20019;-82
2023/10/20 13:48:14;;;;;;;0.30;0.25;;;;;;;;;;6291668;22;20011;-82
2023/10/20 13:50:40;;;;;;;0.20;0.10;;;;;;;;;;6318151;22;20011;-82
2023/10/20 13:53:09;;;;;;;0.20;0.13;;;;;;;;;;6290132;22;20063;-81
2023/10/20 13:55:35;;;;;;;0.20;0.20;;;;;;;;;;6289042;22;20022;-81
2023/10/20 13:58:01;;;;;;;0.38;0.22;;;;;;;;;;6314257;22;20466;-82
2023/10/20 14:00:29;;;;;;;0.30;0.22;;;;;;;;;;6288011;22;20015;-82
2023/10/20 14:02:55;;;;;;;0.20;0.20;;;;;;;;;;6313420;22;20015;-82
2023/10/20 14:05:23;;;;;;;0.30;0.30;;;;;;;;;;6314524;22;20461;-81
2023/10/20 14:07:49;;;;;;;0.95;0.38;;;;;;;;;;6287641;22;20015;-81
2023/10/20 14:10:15;;;;;;;0.30;0.30;;;;;;;;;;6287575;22;20082;-81
2023/10/20 14:12:41;;;;;;;0.47;0.17;;;;;;;;;;6310540;22;20015;-81
2023/10/20 14:15:08;;;;;;;0.17;0.17;;;;;;;;;;6347413;22;20026;-81
2023/10/20 14:17:34;;;;;;;0.20;0.10;;;;;;;;;;6320127;22;20026;-81
2023/10/20 14:20:00;;;;;;;0.20;0.20;;;;;;;;;;6319895;22;20007;-81
2023/10/20 14:22:26;;;;;;;0.28;0.20;;;;;;;;;;6321360;22;20321;-82
2023/10/20 14:24:52;;;;;;;0.20;0.20;;;;;;;;;;6320577;22;20033;-82
2023/10/20 14:27:18;;;;;;;0.22;0.22;;;;;;;;;;6320544;22;20022;-82
2023/10/20 14:29:47;;;;;;;0.15;0.15;;;;;;;;;;6323700;22;20015;-82
2023/10/20 14:32:13;;;;;;;0.20;0.20;;;;;;;;;;6293376;22;20011;-82
2023/10/20 14:34:39;;;;;;;0.30;0.25;;;;;;;;;;6349383;22;20019;-82
2023/10/20 14:37:07;;;;;;;0.57;0.25;;;;;;;;;;6320529;22;20523;-81
2023/10/20 14:39:35;;;;;;;0.15;0.10;;;;;;;;;;6291528;22;20073;-80
2023/10/20 14:42:03;;;;;;;0.38;0.10;;;;;;;;;;6291640;22;20022;-81
2023/10/20 14:44:29;;;;;;;0.10;0.10;;;;;;;;;;6316547;22;20414;-81
2023/10/20 14:46:55;;;;;;;0.10;0.10;;;;;;;;;;6292318;22;20050;-81
2023/10/20 14:49:21;;;;;;;0.73;0.17;;;;;;;;;;6291179;22;20011;-80
2023/10/20 14:51:47;;;;;;;0.20;0.20;;;;;;;;;;6293033;22;20061;-81
2023/10/20 14:54:13;;;;;;;0.30;0.20;;;;;;;;;;6318555;22;20380;-82
2023/10/20 14:56:40;;;;;;;0.50;0.20;;;;;;;;;;6319555;22;20099;-81
2023/10/20 14:59:06;;;;;;;0.50;0.10;;;;;;;;;;6293158;22;20021;-81
2023/10/20 15:01:33;;;;;;;0.10;0.10;;;;;;;;;;6295559;22;20014;-82